Time;durP1;ratioP1;P1;durP2;ratioP2;P2;SDS_P1;SDS_P2;PMS_P1;PMS_P2;Temp;Humidity;BMP_temperature;BMP_pressure;BME280_temperature;BME280_humidity;BME280_pressure;Samples;Min_cycle;Max_cycle;Signal;HPM_P1;HPM_P2
2023/03/02 00:00:24;;;;;;;0.10;0.10;;;;;;;;;;6203156;23;20016;-75
2023/03/02 00:03:10;;;;;;;0.10;0.10;;;;;;;;;;6227661;23;20012;-75
2023/03/02 00:05:57;;;;;;;0.10;0.10;;;;;;;;;;6204886;23;20008;-76
2023/03/02 00:08:43;;;;;;;0.20;0.20;;;;;;;;;;6226646;23;20019;-75
2023/03/02 00:11:29;;;;;;;0.20;0.20;;;;;;;;;;6226090;23;20016;-75
2023/03/02 00:14:15;;;;;;;0.10;0.10;;;;;;;;;;6226832;23;20008;-75
2023/03/02 00:17:01;;;;;;;0.10;0.10;;;;;;;;;;6226464;23;20044;-75
2023/03/02 00:19:47;;;;;;;0.20;0.20;;;;;;;;;;6203119;23;20016;-74
2023/03/02 00:22:33;;;;;;;0.17;0.17;;;;;;;;;;6225589;23;20027;-75
2023/03/02 00:25:18;;;;;;;0.10;0.10;;;;;;;;;;6226428;23;20016;-74
2023/03/02 00:28:04;;;;;;;0.10;0.10;;;;;;;;;;6226019;23;20066;-75
2023/03/02 00:30:50;;;;;;;0.20;0.20;;;;;;;;;;6203292;23;20016;-75
2023/03/02 00:33:35;;;;;;;0.17;0.17;;;;;;;;;;6204497;23;20012;-75
2023/03/02 00:36:22;;;;;;;0.20;0.20;;;;;;;;;;6204321;23;20801;-75
2023/03/02 00:39:07;;;;;;;0.10;0.10;;;;;;;;;;6228153;23;20016;-74
2023/03/02 00:41:53;;;;;;;0.20;0.20;;;;;;;;;;6205004;23;20020;-74
2023/03/02 00:44:39;;;;;;;0.10;0.10;;;;;;;;;;6228419;23;20019;-75
2023/03/02 00:47:24;;;;;;;0.13;0.13;;;;;;;;;;6228440;23;20012;-74
2023/03/02 00:50:10;;;;;;;0.10;0.10;;;;;;;;;;6166950;23;20112;-75
2023/03/02 00:52:56;;;;;;;0.10;0.10;;;;;;;;;;6166823;23;20016;-75
2023/03/02 00:55:42;;;;;;;0.10;0.10;;;;;;;;;;6168433;23;20089;-74
2023/03/02 00:58:28;;;;;;;0.17;0.17;;;;;;;;;;6145810;23;20009;-75
2023/03/02 01:01:15;;;;;;;0.15;0.15;;;;;;;;;;6165160;23;20027;-75
2023/03/02 01:04:05;;;;;;;0.10;0.10;;;;;;;;;;6167496;23;20032;-76
2023/03/02 01:06:51;;;;;;;0.10;0.10;;;;;;;;;;6166117;23;20009;-74
2023/03/02 01:09:37;;;;;;;0.10;0.10;;;;;;;;;;6167157;23;20331;-75
2023/03/02 01:12:23;;;;;;;0.10;0.10;;;;;;;;;;6166869;23;20017;-75
2023/03/02 01:15:09;;;;;;;0.10;0.10;;;;;;;;;;6167593;23;20015;-75
2023/03/02 01:17:55;;;;;;;0.20;0.20;;;;;;;;;;6146891;23;20430;-75
2023/03/02 01:20:41;;;;;;;0.20;0.20;;;;;;;;;;6166688;23;20553;-75
2023/03/02 01:23:27;;;;;;;0.10;0.10;;;;;;;;;;6165170;23;20047;-75
2023/03/02 01:26:13;;;;;;;0.20;0.20;;;;;;;;;;6167400;23;20442;-75
2023/03/02 01:28:58;;;;;;;0.10;0.10;;;;;;;;;;6166279;23;20009;-74
2023/03/02 01:31:45;;;;;;;0.10;0.10;;;;;;;;;;6165383;23;20035;-75
2023/03/02 01:34:30;;;;;;;0.10;0.10;;;;;;;;;;6166491;23;20059;-74
2023/03/02 01:37:16;;;;;;;0.20;0.20;;;;;;;;;;6169504;23;20017;-75
2023/03/02 01:40:05;;;;;;;0.10;0.10;;;;;;;;;;6169097;23;20390;-74
2023/03/02 01:42:56;;;;;;;0.10;0.10;;;;;;;;;;6168093;23;20016;-75
2023/03/02 01:45:50;;;;;;;0.10;0.10;;;;;;;;;;6165258;23;20020;-74
2023/03/02 01:48:53;;;;;;;0.10;0.10;;;;;;;;;;6182602;23;20054;-75
2023/03/02 01:51:47;;;;;;;0.20;0.20;;;;;;;;;;6177800;23;20013;-74
2023/03/02 01:54:37;;;;;;;0.10;0.10;;;;;;;;;;6196363;23;20021;-75
2023/03/02 01:57:26;;;;;;;0.20;0.20;;;;;;;;;;6196929;23;20106;-75
2023/03/02 02:00:13;;;;;;;0.20;0.20;;;;;;;;;;6195421;23;20091;-74
2023/03/02 02:03:07;;;;;;;0.10;0.10;;;;;;;;;;6196938;23;20442;-75
2023/03/02 02:06:07;;;;;;;0.20;0.20;;;;;;;;;;6199660;23;20027;-74
2023/03/02 02:08:53;;;;;;;0.10;0.10;;;;;;;;;;6196882;23;20020;-75
2023/03/02 02:11:40;;;;;;;0.10;0.10;;;;;;;;;;6198005;23;20016;-75
2023/03/02 02:14:26;;;;;;;0.10;0.10;;;;;;;;;;6196766;23;20013;-74
2023/03/02 02:17:13;;;;;;;0.10;0.10;;;;;;;;;;6197462;23;20016;-74
2023/03/02 02:20:18;;;;;;;0.15;0.15;;;;;;;;;;6199553;23;20019;-74
2023/03/02 02:23:17;;;;;;;0.10;0.10;;;;;;;;;;6198385;23;20016;-75
2023/03/02 02:26:09;;;;;;;0.10;0.10;;;;;;;;;;6197630;23;20260;-75
2023/03/02 02:29:13;;;;;;;0.13;0.13;;;;;;;;;;6199747;23;20043;-75
2023/03/02 02:32:00;;;;;;;0.10;0.10;;;;;;;;;;6172344;23;20037;-75
2023/03/02 02:34:51;;;;;;;0.20;0.20;;;;;;;;;;6167805;23;20078;-74
2023/03/02 02:37:42;;;;;;;0.17;0.17;;;;;;;;;;6167271;23;20068;-75
2023/03/02 02:40:40;;;;;;;0.20;0.20;;;;;;;;;;6167027;23;20023;-74
2023/03/02 02:43:28;;;;;;;0.20;0.20;;;;;;;;;;6165723;23;20454;-75
2023/03/02 02:46:14;;;;;;;0.10;0.10;;;;;;;;;;6166994;23;20013;-75
2023/03/02 02:49:01;;;;;;;0.10;0.10;;;;;;;;;;6167284;23;20026;-75
2023/03/02 02:51:47;;;;;;;0.10;0.10;;;;;;;;;;6166491;23;20422;-75
2023/03/02 02:54:34;;;;;;;0.20;0.20;;;;;;;;;;6165929;23;20016;-74
2023/03/02 02:57:23;;;;;;;0.20;0.20;;;;;;;;;;6166733;23;20017;-74
2023/03/02 03:00:13;;;;;;;0.13;0.13;;;;;;;;;;6166212;23;20707;-74
2023/03/02 03:03:05;;;;;;;0.13;0.13;;;;;;;;;;6198174;23;20022;-74
2023/03/02 03:05:52;;;;;;;0.20;0.20;;;;;;;;;;6196278;23;20016;-75
2023/03/02 03:08:44;;;;;;;0.20;0.20;;;;;;;;;;6196394;23;20240;-74
2023/03/02 03:11:38;;;;;;;0.10;0.10;;;;;;;;;;6194776;23;20078;-74
2023/03/02 03:14:26;;;;;;;0.10;0.10;;;;;;;;;;6195734;23;20017;-74
2023/03/02 03:17:13;;;;;;;0.20;0.20;;;;;;;;;;6195022;23;20105;-74
2023/03/02 03:20:26;;;;;;;0.10;0.10;;;;;;;;;;6197623;23;20123;-73
2023/03/02 03:23:11;;;;;;;0.10;0.10;;;;;;;;;;6195210;23;20013;-74
2023/03/02 03:25:57;;;;;;;0.10;0.10;;;;;;;;;;6195885;23;20009;-77
2023/03/02 03:28:43;;;;;;;0.10;0.10;;;;;;;;;;6195940;23;20040;-74
2023/03/02 03:31:29;;;;;;;0.20;0.20;;;;;;;;;;6194820;23;20020;-74
2023/03/02 03:34:16;;;;;;;0.10;0.10;;;;;;;;;;6196158;23;20115;-74
2023/03/02 03:37:02;;;;;;;0.20;0.20;;;;;;;;;;6195581;23;20377;-74
2023/03/02 03:39:52;;;;;;;0.10;0.10;;;;;;;;;;6195887;23;20012;-75
2023/03/02 03:42:39;;;;;;;0.20;0.20;;;;;;;;;;6196022;23;20355;-74
2023/03/02 03:45:24;;;;;;;0.10;0.10;;;;;;;;;;6174164;23;20152;-74
2023/03/02 03:48:10;;;;;;;0.20;0.20;;;;;;;;;;6201721;23;20093;-75
2023/03/02 03:50:57;;;;;;;0.20;0.20;;;;;;;;;;6204575;23;20332;-74
2023/03/02 03:53:43;;;;;;;0.10;0.10;;;;;;;;;;6203895;23;20016;-75
2023/03/02 03:56:32;;;;;;;0.10;0.10;;;;;;;;;;6204320;23;20421;-74
2023/03/02 03:59:19;;;;;;;0.10;0.10;;;;;;;;;;6203919;23;20012;-74
2023/03/02 04:02:17;;;;;;;0.10;0.10;;;;;;;;;;6204864;23;20040;-74
2023/03/02 04:05:06;;;;;;;0.10;0.10;;;;;;;;;;6203573;23;20362;-75
2023/03/02 04:07:52;;;;;;;0.15;0.15;;;;;;;;;;6204565;23;20117;-75
2023/03/02 04:10:39;;;;;;;0.20;0.20;;;;;;;;;;6202936;23;20023;-75
2023/03/02 04:13:25;;;;;;;0.10;0.10;;;;;;;;;;6203013;23;20091;-74
2023/03/02 04:16:11;;;;;;;0.10;0.10;;;;;;;;;;6204595;23;20298;-75
2023/03/02 04:18:57;;;;;;;0.10;0.10;;;;;;;;;;6183032;23;20439;-74
2023/03/02 04:21:45;;;;;;;0.20;0.20;;;;;;;;;;6185481;23;20020;-75
2023/03/02 04:24:31;;;;;;;0.10;0.10;;;;;;;;;;6203302;23;20059;-75
2023/03/02 04:27:21;;;;;;;0.20;0.20;;;;;;;;;;6205728;23;20094;-75
2023/03/02 04:30:07;;;;;;;0.10;0.10;;;;;;;;;;6225604;23;20012;-74
2023/03/02 04:32:53;;;;;;;0.10;0.10;;;;;;;;;;6204303;23;20016;-74
2023/03/02 04:35:40;;;;;;;0.20;0.20;;;;;;;;;;6203235;23;20012;-75
2023/03/02 04:38:28;;;;;;;0.10;0.10;;;;;;;;;;6203124;23;20322;-74
2023/03/02 04:41:14;;;;;;;0.15;0.15;;;;;;;;;;6202869;23;20016;-74
2023/03/02 04:44:00;;;;;;;0.17;0.17;;;;;;;;;;6226162;23;20054;-75
2023/03/02 04:46:47;;;;;;;0.10;0.10;;;;;;;;;;6226066;23;20102;-76
2023/03/02 04:49:33;;;;;;;0.13;0.13;;;;;;;;;;6225492;23;20020;-75
2023/03/02 04:52:19;;;;;;;0.20;0.20;;;;;;;;;;6224693;23;20063;-76
2023/03/02 04:55:06;;;;;;;0.20;0.20;;;;;;;;;;6225398;23;20008;-76
2023/03/02 04:57:51;;;;;;;0.10;0.10;;;;;;;;;;6226004;23;20119;-76
2023/03/02 05:00:37;;;;;;;0.20;0.20;;;;;;;;;;6201314;23;20026;-74
2023/03/02 05:03:23;;;;;;;0.10;0.10;;;;;;;;;;6227646;23;20125;-75
2023/03/02 05:06:09;;;;;;;0.13;0.13;;;;;;;;;;6227952;23;20322;-75
2023/03/02 05:08:58;;;;;;;0.13;0.13;;;;;;;;;;6205562;23;20493;-75
2023/03/02 05:11:44;;;;;;;0.20;0.20;;;;;;;;;;6227706;23;20297;-75
2023/03/02 05:14:30;;;;;;;0.15;0.15;;;;;;;;;;6227469;23;20481;-74
2023/03/02 05:17:15;;;;;;;0.10;0.10;;;;;;;;;;6205409;23;20015;-76
2023/03/02 05:20:01;;;;;;;0.10;0.10;;;;;;;;;;6205034;23;20012;-75
2023/03/02 05:22:47;;;;;;;0.10;0.10;;;;;;;;;;6206951;23;20357;-75
2023/03/02 05:25:34;;;;;;;0.10;0.10;;;;;;;;;;6229788;23;20016;-75
2023/03/02 05:28:20;;;;;;;0.13;0.13;;;;;;;;;;6228831;23;20431;-75
2023/03/02 05:31:06;;;;;;;0.10;0.10;;;;;;;;;;6206799;23;20044;-75
2023/03/02 05:33:53;;;;;;;0.10;0.10;;;;;;;;;;6229484;23;20022;-75
2023/03/02 05:36:39;;;;;;;0.10;0.10;;;;;;;;;;6229339;23;20012;-75
2023/03/02 05:39:26;;;;;;;0.20;0.20;;;;;;;;;;6207972;23;20130;-75
2023/03/02 05:42:11;;;;;;;0.10;0.10;;;;;;;;;;6229888;23;20008;-75
2023/03/02 05:44:57;;;;;;;0.15;0.15;;;;;;;;;;6228807;23;20353;-74
2023/03/02 05:47:43;;;;;;;0.10;0.10;;;;;;;;;;6208211;23;20456;-77
2023/03/02 05:50:29;;;;;;;0.10;0.10;;;;;;;;;;6227622;23;20016;-75
2023/03/02 05:53:14;;;;;;;0.10;0.10;;;;;;;;;;6228790;23;20704;-76
2023/03/02 05:56:00;;;;;;;0.10;0.10;;;;;;;;;;6207099;23;20019;-76
2023/03/02 05:58:46;;;;;;;0.10;0.10;;;;;;;;;;6207342;23;20062;-76
2023/03/02 06:01:31;;;;;;;0.13;0.13;;;;;;;;;;6226761;23;20298;-76
2023/03/02 06:04:17;;;;;;;0.10;0.10;;;;;;;;;;6227780;23;20043;-76
2023/03/02 06:07:03;;;;;;;0.20;0.20;;;;;;;;;;6228518;23;20489;-74
2023/03/02 06:09:49;;;;;;;0.10;0.10;;;;;;;;;;6229139;23;20446;-75
2023/03/02 06:12:35;;;;;;;0.10;0.10;;;;;;;;;;6229475;23;20020;-75
2023/03/02 06:15:23;;;;;;;0.10;0.10;;;;;;;;;;6227250;23;20397;-75
2023/03/02 06:18:11;;;;;;;0.17;0.17;;;;;;;;;;6229725;23;20012;-75
2023/03/02 06:20:56;;;;;;;0.20;0.20;;;;;;;;;;6228949;23;20040;-75
2023/03/02 06:23:42;;;;;;;0.10;0.10;;;;;;;;;;6229897;23;20012;-75
2023/03/02 06:26:28;;;;;;;0.10;0.10;;;;;;;;;;6228174;23;20043;-75
2023/03/02 06:29:13;;;;;;;0.17;0.17;;;;;;;;;;6186716;23;20457;-75
2023/03/02 06:32:02;;;;;;;0.10;0.10;;;;;;;;;;6228337;23;20158;-75
2023/03/02 06:34:47;;;;;;;0.10;0.10;;;;;;;;;;6206642;23;20444;-75
2023/03/02 06:37:33;;;;;;;0.20;0.20;;;;;;;;;;6229018;23;20012;-75
2023/03/02 06:40:20;;;;;;;0.20;0.20;;;;;;;;;;6228409;23;20019;-75
2023/03/02 06:43:09;;;;;;;0.10;0.10;;;;;;;;;;6228646;23;20016;-76
2023/03/02 06:45:55;;;;;;;0.20;0.20;;;;;;;;;;6228596;23;20349;-75
2023/03/02 06:48:41;;;;;;;0.20;0.20;;;;;;;;;;6185744;23;20426;-76
2023/03/02 06:51:26;;;;;;;0.20;0.20;;;;;;;;;;6228243;23;20429;-76
2023/03/02 06:54:12;;;;;;;0.10;0.10;;;;;;;;;;6228541;23;20334;-77
2023/03/02 06:56:58;;;;;;;0.10;0.10;;;;;;;;;;6228159;23;20316;-77
2023/03/02 06:59:44;;;;;;;0.20;0.20;;;;;;;;;;6228901;23;20016;-78
2023/03/02 07:02:29;;;;;;;0.15;0.15;;;;;;;;;;6225574;23;20027;-77
2023/03/02 07:05:15;;;;;;;0.20;0.20;;;;;;;;;;6227975;23;20099;-78
2023/03/02 07:08:01;;;;;;;0.20;0.20;;;;;;;;;;6228930;23;20772;-77
2023/03/02 07:10:47;;;;;;;0.10;0.10;;;;;;;;;;6227865;23;20039;-76
2023/03/02 07:13:32;;;;;;;0.20;0.20;;;;;;;;;;6205443;23;20016;-77
2023/03/02 07:16:18;;;;;;;0.20;0.20;;;;;;;;;;6227732;23;20116;-77
2023/03/02 07:19:04;;;;;;;0.17;0.17;;;;;;;;;;6185642;23;20023;-78
2023/03/02 07:21:50;;;;;;;0.15;0.15;;;;;;;;;;6227022;23;20023;-78
2023/03/02 07:24:35;;;;;;;0.20;0.20;;;;;;;;;;6226234;23;20031;-78
2023/03/02 07:27:23;;;;;;;0.10;0.10;;;;;;;;;;6227365;23;20452;-76
2023/03/02 07:30:09;;;;;;;0.10;0.10;;;;;;;;;;6225881;23;20191;-77
2023/03/02 07:32:56;;;;;;;0.15;0.15;;;;;;;;;;6205377;23;20329;-77
2023/03/02 07:35:42;;;;;;;0.10;0.10;;;;;;;;;;6226381;23;20307;-77
2023/03/02 07:38:27;;;;;;;0.20;0.20;;;;;;;;;;6227117;23;20497;-78
2023/03/02 07:41:15;;;;;;;0.10;0.10;;;;;;;;;;6226307;23;20020;-78
2023/03/02 07:44:01;;;;;;;0.10;0.10;;;;;;;;;;6205470;23;20587;-78
2023/03/02 07:46:47;;;;;;;0.10;0.10;;;;;;;;;;6227258;23;20448;-78
2023/03/02 07:49:34;;;;;;;0.10;0.10;;;;;;;;;;6203934;23;20059;-79
2023/03/02 07:52:19;;;;;;;0.20;0.20;;;;;;;;;;6185963;23;20012;-79
2023/03/02 07:55:05;;;;;;;0.17;0.17;;;;;;;;;;6203627;23;20455;-77
2023/03/02 07:57:51;;;;;;;0.20;0.20;;;;;;;;;;6226374;23;20020;-79
2023/03/02 08:00:38;;;;;;;0.17;0.17;;;;;;;;;;6224415;23;20341;-78
2023/03/02 08:03:25;;;;;;;0.10;0.10;;;;;;;;;;6227593;23;20008;-77
2023/03/02 08:06:11;;;;;;;0.10;0.10;;;;;;;;;;6205695;23;20012;-78
2023/03/02 08:08:59;;;;;;;0.10;0.10;;;;;;;;;;6206368;23;20070;-77
2023/03/02 08:11:46;;;;;;;0.20;0.20;;;;;;;;;;6226739;23;20323;-77
2023/03/02 08:14:32;;;;;;;0.20;0.20;;;;;;;;;;6204829;23;20024;-76
2023/03/02 08:17:18;;;;;;;0.20;0.20;;;;;;;;;;6227061;23;20012;-79
2023/03/02 08:20:04;;;;;;;0.10;0.10;;;;;;;;;;6205428;23;20015;-78
2023/03/02 08:22:50;;;;;;;0.10;0.10;;;;;;;;;;6227911;23;20016;-78
2023/03/02 08:25:37;;;;;;;0.10;0.10;;;;;;;;;;6225789;23;20008;-78
2023/03/02 08:28:26;;;;;;;0.20;0.20;;;;;;;;;;6206348;23;20012;-78
2023/03/02 08:31:12;;;;;;;0.10;0.10;;;;;;;;;;6226815;23;20120;-78
2023/03/02 08:33:58;;;;;;;0.10;0.10;;;;;;;;;;6204960;23;20047;-77
2023/03/02 08:36:44;;;;;;;0.10;0.10;;;;;;;;;;6226926;23;20532;-78
2023/03/02 08:39:30;;;;;;;0.10;0.10;;;;;;;;;;6179821;23;20012;-77
2023/03/02 08:42:16;;;;;;;0.10;0.10;;;;;;;;;;6204137;23;20027;-76
2023/03/02 08:45:02;;;;;;;0.10;0.10;;;;;;;;;;6225085;23;20016;-76
2023/03/02 08:47:48;;;;;;;0.20;0.20;;;;;;;;;;6226868;23;20103;-77
2023/03/02 08:50:34;;;;;;;0.13;0.13;;;;;;;;;;6225311;23;20023;-78
2023/03/02 08:53:19;;;;;;;0.10;0.10;;;;;;;;;;6204252;23;20525;-77
2023/03/02 08:56:13;;;;;;;0.10;0.10;;;;;;;;;;6226212;23;20095;-77
2023/03/02 08:59:00;;;;;;;0.10;0.10;;;;;;;;;;6204934;23;20018;-77
2023/03/02 09:01:47;;;;;;;0.10;0.10;;;;;;;;;;6227054;23;20535;-77
2023/03/02 09:04:33;;;;;;;0.10;0.10;;;;;;;;;;6227297;23;20023;-75
2023/03/02 09:07:19;;;;;;;0.20;0.20;;;;;;;;;;6207194;23;20023;-75
2023/03/02 09:10:05;;;;;;;0.10;0.10;;;;;;;;;;6228302;23;20091;-77
2023/03/02 09:12:50;;;;;;;0.20;0.20;;;;;;;;;;6228511;23;20025;-78
2023/03/02 09:15:36;;;;;;;0.10;0.10;;;;;;;;;;6227276;23;20091;-78
2023/03/02 09:18:22;;;;;;;0.10;0.10;;;;;;;;;;6227477;23;20016;-75
2023/03/02 09:21:08;;;;;;;0.10;0.10;;;;;;;;;;6226867;23;20058;-77
2023/03/02 09:23:57;;;;;;;0.20;0.20;;;;;;;;;;6226670;23;20093;-77
2023/03/02 09:26:43;;;;;;;0.10;0.10;;;;;;;;;;6207608;23;20567;-77
2023/03/02 09:29:29;;;;;;;0.10;0.10;;;;;;;;;;6229575;23;20571;-77
2023/03/02 09:32:14;;;;;;;0.20;0.20;;;;;;;;;;6227521;23;20484;-76
2023/03/02 09:35:00;;;;;;;0.20;0.20;;;;;;;;;;6227170;23;20012;-75
2023/03/02 09:37:46;;;;;;;0.10;0.10;;;;;;;;;;6228061;23;20016;-77
2023/03/02 09:40:34;;;;;;;0.10;0.10;;;;;;;;;;6185106;23;20051;-77
2023/03/02 09:43:28;;;;;;;0.10;0.10;;;;;;;;;;6228089;23;20026;-76
2023/03/02 09:46:16;;;;;;;0.20;0.20;;;;;;;;;;6228141;23;20019;-75
2023/03/02 09:49:15;;;;;;;0.10;0.10;;;;;;;;;;6229640;23;20031;-77
2023/03/02 09:52:26;;;;;;;0.20;0.20;;;;;;;;;;6204793;23;20015;-76
2023/03/02 09:55:12;;;;;;;0.20;0.20;;;;;;;;;;6227088;23;20008;-75
2023/03/02 09:58:01;;;;;;;0.20;0.20;;;;;;;;;;6228303;23;20012;-77
2023/03/02 10:00:46;;;;;;;0.20;0.20;;;;;;;;;;6226809;23;20027;-77
2023/03/02 10:03:37;;;;;;;0.20;0.20;;;;;;;;;;6227828;23;20016;-79
2023/03/02 10:06:26;;;;;;;0.20;0.20;;;;;;;;;;6204355;23;20009;-78
2023/03/02 10:09:11;;;;;;;0.20;0.20;;;;;;;;;;6228366;23;20118;-78
2023/03/02 10:12:16;;;;;;;0.20;0.20;;;;;;;;;;6204247;23;20392;-78
2023/03/02 10:15:08;;;;;;;0.20;0.20;;;;;;;;;;6228101;23;20244;-77
2023/03/02 10:17:58;;;;;;;0.20;0.20;;;;;;;;;;6226445;23;20016;-79
2023/03/02 10:20:53;;;;;;;0.20;0.20;;;;;;;;;;6228608;23;20020;-78
2023/03/02 10:23:39;;;;;;;0.30;0.30;;;;;;;;;;6228111;23;20703;-78
2023/03/02 10:26:30;;;;;;;0.20;0.20;;;;;;;;;;6226424;23;20427;-77
2023/03/02 10:29:38;;;;;;;0.20;0.20;;;;;;;;;;6228083;23;20082;-78
2023/03/02 10:32:28;;;;;;;0.20;0.20;;;;;;;;;;6226410;23;20027;-79
2023/03/02 10:35:19;;;;;;;0.20;0.20;;;;;;;;;;6228869;23;20031;-79
2023/03/02 10:38:12;;;;;;;0.30;0.30;;;;;;;;;;6226749;23;20035;-79
2023/03/02 10:41:02;;;;;;;0.20;0.20;;;;;;;;;;6186692;23;20103;-79
2023/03/02 10:43:50;;;;;;;0.20;0.20;;;;;;;;;;6204336;23;20023;-78
2023/03/02 10:46:40;;;;;;;0.20;0.20;;;;;;;;;;6227900;23;20022;-77
2023/03/02 10:49:25;;;;;;;0.20;0.20;;;;;;;;;;6227480;23;20031;-76
2023/03/02 10:52:12;;;;;;;0.20;0.20;;;;;;;;;;6227879;23;20077;-77
2023/03/02 10:55:03;;;;;;;0.15;0.15;;;;;;;;;;6227514;23;20012;-77
2023/03/02 10:57:59;;;;;;;0.20;0.20;;;;;;;;;;6203745;23;20342;-77
2023/03/02 11:01:15;;;;;;;0.20;0.20;;;;;;;;;;6225253;23;20035;-77
2023/03/02 11:04:01;;;;;;;0.20;0.20;;;;;;;;;;6195543;23;20027;-77
2023/03/02 11:06:46;;;;;;;0.20;0.20;;;;;;;;;;6227001;23;20075;-78
2023/03/02 11:09:32;;;;;;;0.20;0.20;;;;;;;;;;6227627;23;20008;-78
2023/03/02 11:12:18;;;;;;;0.20;0.20;;;;;;;;;;6227202;23;20020;-78
2023/03/02 11:15:22;;;;;;;0.20;0.20;;;;;;;;;;6227336;23;20012;-78
2023/03/02 11:18:25;;;;;;;0.22;0.22;;;;;;;;;;6227375;23;20019;-78
2023/03/02 11:21:23;;;;;;;0.20;0.20;;;;;;;;;;6226345;23;20050;-78
2023/03/02 11:24:27;;;;;;;0.10;0.10;;;;;;;;;;6226410;23;20012;-77
2023/03/02 11:27:19;;;;;;;0.10;0.10;;;;;;;;;;6226509;23;20016;-77
2023/03/02 11:30:15;;;;;;;0.10;0.10;;;;;;;;;;6226250;23;20024;-77
2023/03/02 11:33:06;;;;;;;0.10;0.10;;;;;;;;;;6227395;23;20054;-77
2023/03/02 11:35:56;;;;;;;0.10;0.10;;;;;;;;;;6225436;23;20405;-77
2023/03/02 11:38:52;;;;;;;0.10;0.10;;;;;;;;;;6223980;23;20310;-78
2023/03/02 11:41:39;;;;;;;0.20;0.20;;;;;;;;;;6224545;23;20020;-78
2023/03/02 11:44:26;;;;;;;0.10;0.10;;;;;;;;;;6204069;23;20023;-78
2023/03/02 11:47:12;;;;;;;0.20;0.20;;;;;;;;;;6203155;23;20382;-77
2023/03/02 11:50:02;;;;;;;0.13;0.13;;;;;;;;;;6225577;23;20024;-77
2023/03/02 11:52:50;;;;;;;0.10;0.10;;;;;;;;;;6204161;23;20422;-75
2023/03/02 11:55:42;;;;;;;0.10;0.10;;;;;;;;;;6204594;23;20052;-78
2023/03/02 11:58:30;;;;;;;0.10;0.10;;;;;;;;;;6226451;23;20023;-77
2023/03/02 12:01:20;;;;;;;0.10;0.10;;;;;;;;;;6226024;23;20753;-78
2023/03/02 12:04:09;;;;;;;0.10;0.10;;;;;;;;;;6225923;23;20019;-77
2023/03/02 12:06:54;;;;;;;0.10;0.10;;;;;;;;;;6203788;23;20107;-77
2023/03/02 12:09:41;;;;;;;0.10;0.10;;;;;;;;;;6226672;23;20023;-77
2023/03/02 12:12:32;;;;;;;0.10;0.10;;;;;;;;;;6226759;23;20066;-77
2023/03/02 12:15:33;;;;;;;0.10;0.10;;;;;;;;;;6227305;23;20019;-77
2023/03/02 12:18:19;;;;;;;0.10;0.10;;;;;;;;;;6226802;23;20426;-77
2023/03/02 12:21:05;;;;;;;0.10;0.10;;;;;;;;;;6227907;23;20020;-77
2023/03/02 12:23:50;;;;;;;0.10;0.10;;;;;;;;;;6226896;23;20023;-77
2023/03/02 12:26:37;;;;;;;0.10;0.10;;;;;;;;;;6227904;23;20019;-77
2023/03/02 12:29:23;;;;;;;0.10;0.10;;;;;;;;;;6226193;23;20015;-77
2023/03/02 12:32:15;;;;;;;0.08;0.08;;;;;;;;;;6225504;23;20513;-77
2023/03/02 12:35:07;;;;;;;0.10;0.10;;;;;;;;;;6228909;23;20026;-77
2023/03/02 12:37:57;;;;;;;0.10;0.10;;;;;;;;;;6226047;23;20394;-77
2023/03/02 12:41:08;;;;;;;0.10;0.10;;;;;;;;;;6165546;23;20039;-77
2023/03/02 12:44:01;;;;;;;0.10;0.10;;;;;;;;;;6208004;23;20516;-78
2023/03/02 12:46:47;;;;;;;0.10;0.10;;;;;;;;;;6226856;23;20016;-77
2023/03/02 12:49:49;;;;;;;0.10;0.10;;;;;;;;;;6227917;23;20027;-78
2023/03/02 12:52:35;;;;;;;0.10;0.10;;;;;;;;;;6227026;23;20016;-77
2023/03/02 12:55:21;;;;;;;0.10;0.10;;;;;;;;;;6228655;23;20043;-77
2023/03/02 12:58:14;;;;;;;0.10;0.10;;;;;;;;;;6227988;23;20008;-78
2023/03/02 13:01:03;;;;;;;0.10;0.10;;;;;;;;;;6227410;23;20445;-78
2023/03/02 13:03:49;;;;;;;0.10;0.10;;;;;;;;;;6226934;23;20038;-79
2023/03/02 13:06:36;;;;;;;0.10;0.10;;;;;;;;;;6227501;23;20013;-79
2023/03/02 13:09:22;;;;;;;0.10;0.10;;;;;;;;;;6227813;23;20317;-79
2023/03/02 13:12:14;;;;;;;0.08;0.08;;;;;;;;;;6228145;23;20028;-78
2023/03/02 13:15:00;;;;;;;0.00;0.00;;;;;;;;;;6229445;23;20012;-77
2023/03/02 13:17:52;;;;;;;0.10;0.10;;;;;;;;;;6227698;23;20476;-78
2023/03/02 13:20:38;;;;;;;0.10;0.10;;;;;;;;;;6227464;23;20020;-75
2023/03/02 13:23:23;;;;;;;0.10;0.10;;;;;;;;;;6227292;23;20506;-76
2023/03/02 13:26:31;;;;;;;0.10;0.10;;;;;;;;;;6227176;23;20370;-76
2023/03/02 13:29:21;;;;;;;0.10;0.10;;;;;;;;;;6185393;23;20012;-76
2023/03/02 13:32:18;;;;;;;0.10;0.10;;;;;;;;;;6224828;23;20352;-76
2023/03/02 13:35:14;;;;;;;0.10;0.10;;;;;;;;;;6226094;23;20024;-76
2023/03/02 13:38:02;;;;;;;0.63;0.63;;;;;;;;;;6202841;23;20011;-76
2023/03/02 13:40:52;;;;;;;0.10;0.10;;;;;;;;;;6189396;23;20016;-76
2023/03/02 13:43:38;;;;;;;0.10;0.10;;;;;;;;;;6227362;23;20066;-77
2023/03/02 13:46:27;;;;;;;0.10;0.10;;;;;;;;;;6225657;23;20020;-76
2023/03/02 13:49:13;;;;;;;0.10;0.10;;;;;;;;;;6227383;23;20406;-76
2023/03/02 13:52:03;;;;;;;0.10;0.10;;;;;;;;;;6227667;23;20008;-76
2023/03/02 13:54:49;;;;;;;0.10;0.10;;;;;;;;;;6205463;23;20300;-76
2023/03/02 13:57:35;;;;;;;0.00;0.00;;;;;;;;;;6227762;23;20253;-76
2023/03/02 14:00:22;;;;;;;0.10;0.10;;;;;;;;;;6225958;23;20137;-76
2023/03/02 14:03:24;;;;;;;0.10;0.10;;;;;;;;;;6206212;23;20065;-75
2023/03/02 14:06:13;;;;;;;0.55;0.55;;;;;;;;;;6225877;23;20077;-76
2023/03/02 14:08:58;;;;;;;0.10;0.10;;;;;;;;;;6204916;23;20016;-76
2023/03/02 14:11:48;;;;;;;0.10;0.10;;;;;;;;;;6227344;23;20028;-76
2023/03/02 14:14:36;;;;;;;0.10;0.10;;;;;;;;;;6227532;23;20601;-76
2023/03/02 14:17:23;;;;;;;0.10;0.10;;;;;;;;;;6226994;23;20016;-76
2023/03/02 14:20:12;;;;;;;0.10;0.10;;;;;;;;;;6227087;23;20085;-75
2023/03/02 14:23:02;;;;;;;0.10;0.10;;;;;;;;;;6227371;23;20020;-75
2023/03/02 14:25:49;;;;;;;0.00;0.00;;;;;;;;;;6227276;23;20237;-76
2023/03/02 14:28:35;;;;;;;0.10;0.10;;;;;;;;;;6226349;23;20119;-76
2023/03/02 14:31:23;;;;;;;0.10;0.10;;;;;;;;;;6226246;23;20066;-75
2023/03/02 14:34:13;;;;;;;0.10;0.10;;;;;;;;;;6204601;23;20016;-76
2023/03/02 14:37:01;;;;;;;0.10;0.10;;;;;;;;;;6226495;23;20119;-76
2023/03/02 14:39:50;;;;;;;0.10;0.10;;;;;;;;;;6164617;23;20255;-76
2023/03/02 14:42:36;;;;;;;0.10;0.10;;;;;;;;;;6226796;23;20020;-77
2023/03/02 14:45:22;;;;;;;0.10;0.10;;;;;;;;;;6226089;23;20350;-77
2023/03/02 14:48:07;;;;;;;0.15;0.15;;;;;;;;;;6203344;23;20385;-76
2023/03/02 14:50:53;;;;;;;0.20;0.20;;;;;;;;;;6204428;23;20069;-77
2023/03/02 14:53:39;;;;;;;0.10;0.10;;;;;;;;;;6229538;23;20012;-77
2023/03/02 14:56:29;;;;;;;0.10;0.10;;;;;;;;;;6226084;23;20062;-77
2023/03/02 14:59:15;;;;;;;;;;;;;;;;;;6206440;23;20015;-77
2023/03/02 15:02:01;;;;;;;0.10;0.10;;;;;;;;;;6228235;23;19947;-78
2023/03/02 15:04:47;;;;;;;0.10;0.10;;;;;;;;;;6205993;23;20344;-77
2023/03/02 15:07:33;;;;;;;0.10;0.10;;;;;;;;;;6226050;23;20342;-77
2023/03/02 15:10:20;;;;;;;0.10;0.10;;;;;;;;;;6226225;23;20239;-77
2023/03/02 15:13:06;;;;;;;0.05;0.05;;;;;;;;;;6227234;23;20004;-77
2023/03/02 15:15:51;;;;;;;0.00;0.00;;;;;;;;;;6227496;23;20676;-76
2023/03/02 15:18:38;;;;;;;0.00;0.00;;;;;;;;;;6227521;23;20485;-76
2023/03/02 15:21:23;;;;;;;0.00;0.00;;;;;;;;;;6226064;23;20020;-75
2023/03/02 15:24:09;;;;;;;0.00;0.00;;;;;;;;;;6202663;23;20497;-75
2023/03/02 15:26:55;;;;;;;0.00;0.00;;;;;;;;;;6227870;23;20226;-76
2023/03/02 15:29:43;;;;;;;0.00;0.00;;;;;;;;;;6226552;23;20016;-76
2023/03/02 15:32:29;;;;;;;0.00;0.00;;;;;;;;;;6226810;23;20047;-76
2023/03/02 15:35:15;;;;;;;0.00;0.00;;;;;;;;;;6203824;23;20606;-76
2023/03/02 15:38:03;;;;;;;0.05;0.05;;;;;;;;;;6227321;23;20806;-74
2023/03/02 15:40:49;;;;;;;0.10;0.10;;;;;;;;;;6184643;23;20015;-74
2023/03/02 15:43:34;;;;;;;0.10;0.10;;;;;;;;;;6228504;23;20052;-75
2023/03/02 15:46:21;;;;;;;0.00;0.00;;;;;;;;;;6226412;23;20019;-75
2023/03/02 15:49:06;;;;;;;0.00;0.00;;;;;;;;;;6226595;23;20091;-75
2023/03/02 15:51:53;;;;;;;0.03;0.03;;;;;;;;;;6227697;23;20020;-75
2023/03/02 15:54:39;;;;;;;0.00;0.00;;;;;;;;;;6225943;23;20674;-75
2023/03/02 15:57:25;;;;;;;0.10;0.10;;;;;;;;;;6226684;23;20016;-75
2023/03/02 16:00:12;;;;;;;0.00;0.00;;;;;;;;;;6226288;23;20094;-76
2023/03/02 16:02:59;;;;;;;0.10;0.10;;;;;;;;;;6229759;23;20050;-76
2023/03/02 16:05:45;;;;;;;0.00;0.00;;;;;;;;;;6204949;23;20019;-76
2023/03/02 16:08:31;;;;;;;0.10;0.10;;;;;;;;;;6227169;23;20527;-76
2023/03/02 16:11:21;;;;;;;0.10;0.10;;;;;;;;;;6225124;23;20100;-76
2023/03/02 16:14:07;;;;;;;0.10;0.10;;;;;;;;;;6226734;23;20023;-76
2023/03/02 16:16:53;;;;;;;0.10;0.10;;;;;;;;;;6227010;23;20044;-76
2023/03/02 16:19:38;;;;;;;0.05;0.05;;;;;;;;;;6225776;23;20016;-76
2023/03/02 16:22:24;;;;;;;0.10;0.10;;;;;;;;;;6225435;23;20077;-77
2023/03/02 16:25:10;;;;;;;0.10;0.10;;;;;;;;;;6226907;23;20056;-75
2023/03/02 16:27:55;;;;;;;0.57;0.10;;;;;;;;;;6227375;23;20016;-76
2023/03/02 16:30:43;;;;;;;0.10;0.10;;;;;;;;;;6225031;23;20024;-76
2023/03/02 16:33:31;;;;;;;0.10;0.10;;;;;;;;;;6204287;23;20016;-76
2023/03/02 16:36:17;;;;;;;0.10;0.10;;;;;;;;;;6225065;23;20146;-76
2023/03/02 16:39:04;;;;;;;0.10;0.10;;;;;;;;;;6171771;23;20012;-76
2023/03/02 16:41:50;;;;;;;0.10;0.10;;;;;;;;;;6224544;23;20516;-76
2023/03/02 16:44:36;;;;;;;0.10;0.10;;;;;;;;;;6226506;23;20022;-77
2023/03/02 16:47:22;;;;;;;0.05;0.05;;;;;;;;;;6226420;23;20437;-76